Time;durP1;ratioP1;P1;durP2;ratioP2;P2;SDS_P1;SDS_P2;PMS_P1;PMS_P2;Temp;Humidity;BMP_temperature;BMP_pressure;BME280_temperature;BME280_humidity;BME280_pressure;Samples;Min_cycle;Max_cycle;Signal;HPM_P1;HPM_P2
2019/04/22 00:01:12;;;;;;;6.5;3.5;;;;;;;9.76;59.86816;935.9706;;;;
2019/04/22 00:03:34;;;;;;;6.2;3.6;;;;;;;9.71;60.10156;935.8653;;;;
2019/04/22 00:06:04;;;;;;;6.8;3.4;;;;;;;9.82;59.76367;935.8808;;;;
2019/04/22 00:08:32;;;;;;;5.9;3.4;;;;;;;9.85;59.49512;935.8644;;;;
2019/04/22 00:10:54;;;;;;;6;3.6;;;;;;;9.83;59.82129;935.8117;;;;
2019/04/22 00:13:19;;;;;;;7.6;4;;;;;;;10.12;58.96094;935.8348;;;;
2019/04/22 00:15:44;;;;;;;6.6;3.5;;;;;;;9.65;60.17285;935.7861;;;;
2019/04/22 00:18:09;;;;;;;8.4;3.9;;;;;;;9.94;59.45996;935.7505;;;;
2019/04/22 00:20:34;;;;;;;7.6;4;;;;;;;9.68;59.99414;935.6647;;;;
2019/04/22 00:22:59;;;;;;;5.6;3.7;;;;;;;9.56;60.64941;935.7564;;;;
2019/04/22 00:25:25;;;;;;;5.9;4;;;;;;;9.42;61.32422;935.736;;;;
2019/04/22 00:27:50;;;;;;;8.8;4;;;;;;;9.54;60.73828;935.6775;;;;
2019/04/22 00:30:15;;;;;;;7.4;4.2;;;;;;;9.68;59.98438;935.6433;;;;
2019/04/22 00:33:02;;;;;;;6;3.7;;;;;;;9.66;60.4375;935.5986;;;;
2019/04/22 00:35:05;;;;;;;5.3;3.7;;;;;;;9.76;59.68652;935.6359;;;;
2019/04/22 00:37:30;;;;;;;5.9;3.4;;;;;;;9.54;60.5791;935.5336;;;;
2019/04/22 00:39:56;;;;;;;4.9;3.9;;;;;;;9.24;61.70801;935.5282;;;;
2019/04/22 00:42:21;;;;;;;5.5;3.7;;;;;;;9.26;61.90527;935.5722;;;;
2019/04/22 00:44:49;;;;;;;4;3.2;;;;;;;8.94;62.72363;935.5261;;;;
2019/04/22 00:47:14;;;;;;;5.9;3.5;;;;;;;9.05;62.31934;935.5197;;;;
2019/04/22 00:49:41;;;;;;;5.3;3.8;;;;;;;9.06;62.33105;935.426;;;;
2019/04/22 00:52:16;;;;;;;6.7;3.9;;;;;;;8.95;62.33984;935.4611;;;;
2019/04/22 00:54:56;;;;;;;5.9;3.6;;;;;;;8.97;62.02344;935.447;;;;
2019/04/22 00:57:21;;;;;;;4.8;3.4;;;;;;;9.12;61.60059;935.3909;;;;
2019/04/22 00:59:48;;;;;;;5.7;3.2;;;;;;;9.51;60.55078;935.4308;;;;
2019/04/22 01:02:14;;;;;;;4.9;3.4;;;;;;;9.35;60.50684;935.3394;;;;
2019/04/22 01:04:40;;;;;;;5.3;3.3;;;;;;;9.06;61.61426;935.3116;;;;
2019/04/22 01:07:05;;;;;;;8;3.2;;;;;;;9.38;60.83105;935.2896;;;;
2019/04/22 01:09:40;;;;;;;5.8;3.4;;;;;;;9.44;60.22363;935.2801;;;;
2019/04/22 01:12:25;;;;;;;5.5;3.4;;;;;;;9.44;60.55371;935.2166;;;;
2019/04/22 01:14:50;;;;;;;4.2;3;;;;;;;9.22;60.99023;935.0761;;;;
2019/04/22 01:17:16;;;;;;;5.3;3.3;;;;;;;9.08;61.31055;935.1364;;;;
2019/04/22 01:19:41;;;;;;;3.9;3;;;;;;;8.74;62.2168;935.1465;;;;
2019/04/22 01:22:09;;;;;;;4.9;3.1;;;;;;;8.92;61.90234;934.9899;;;;
2019/04/22 01:24:34;;;;;;;6.6;3.6;;;;;;;8.82;62.45801;935.0453;;;;
2019/04/22 01:27:00;;;;;;;5;3.6;;;;;;;8.74;62.69434;934.9219;;;;
2019/04/22 01:29:25;;;;;;;6.7;3.5;;;;;;;8.64;63.05566;935.0073;;;;
2019/04/22 01:31:50;;;;;;;5.7;3.3;;;;;;;9.19;61.38281;934.9642;;;;
2019/04/22 01:34:15;;;;;;;6.8;3.6;;;;;;;8.78;62.87207;934.9938;;;;
2019/04/22 01:36:40;;;;;;;8.9;4;;;;;;;8.52;64.24316;934.9294;;;;
2019/04/22 01:39:05;;;;;;;6;4;;;;;;;8.56;64.16895;934.9894;;;;
2019/04/22 01:41:30;;;;;;;7.3;4.2;;;;;;;8.47;64.35938;934.9717;;;;
2019/04/22 01:43:58;;;;;;;6.2;3.9;;;;;;;8.79;63.2373;934.8915;;;;
2019/04/22 01:46:23;;;;;;;5.9;3.9;;;;;;;8.99;62.25391;934.7881;;;;
2019/04/22 01:48:48;;;;;;;5.6;3.9;;;;;;;8.67;62.87891;934.818;;;;
2019/04/22 01:51:13;;;;;;;5.1;3.7;;;;;;;8.37;64.07227;934.8283;;;;
2019/04/22 01:53:39;;;;;;;5.6;3.7;;;;;;;8.04;65.28223;934.8329;;;;
2019/04/22 01:56:05;;;;;;;5.1;3.5;;;;;;;8;64.75586;934.7981;;;;
2019/04/22 01:58:31;;;;;;;5.8;3.4;;;;;;;8.35;62.87695;934.7455;;;;
2019/04/22 02:01:15;;;;;;;5.2;3.5;;;;;;;8.48;63.25977;934.6997;;;;
2019/04/22 02:03:40;;;;;;;5.4;3.6;;;;;;;8.62;62.54102;934.7173;;;;
2019/04/22 02:06:07;;;;;;;4.1;3.2;;;;;;;8.47;63.00781;934.6671;;;;
2019/04/22 02:08:49;;;;;;;5.4;3.9;;;;;;;8.2;63.9668;934.6955;;;;
2019/04/22 02:11:14;;;;;;;6.8;3.9;;;;;;;8.4;63.56641;934.6691;;;;
2019/04/22 02:13:40;;;;;;;7.4;3.9;;;;;;;8.45;63.2334;934.5502;;;;
2019/04/22 02:16:06;;;;;;;5.3;3.6;;;;;;;8.25;63.97559;934.5474;;;;
2019/04/22 02:18:32;;;;;;;5.8;3.6;;;;;;;8.3;63.3584;934.5256;;;;
2019/04/22 02:20:58;;;;;;;5.3;3.5;;;;;;;8.24;63.47461;934.4211;;;;
2019/04/22 02:23:24;;;;;;;9.2;3.5;;;;;;;7.91;64.23047;934.502;;;;
2019/04/22 02:25:50;;;;;;;9.2;3.2;;;;;;;8.28;62.92285;934.4222;;;;
2019/04/22 02:28:16;;;;;;;3.9;2.9;;;;;;;7.99;62.8916;934.4349;;;;
2019/04/22 02:30:41;;;;;;;5.1;3.2;;;;;;;7.84;63.74414;934.3981;;;;
2019/04/22 02:33:07;;;;;;;3.7;3;;;;;;;8.07;63.1875;934.3775;;;;
2019/04/22 02:35:32;;;;;;;4.4;3;;;;;;;7.98;63.60742;934.3134;;;;
2019/04/22 02:37:58;;;;;;;5.7;3.1;;;;;;;8.41;61.91992;934.3086;;;;
2019/04/22 02:40:25;;;;;;;4.4;3;;;;;;;7.94;63.51074;934.3756;;;;
2019/04/22 02:42:50;;;;;;;8.3;3.4;;;;;;;7.7;64.65332;934.3348;;;;
2019/04/22 02:45:17;;;;;;;3.9;3;;;;;;;8.19;63.35254;934.3282;;;;
2019/04/22 02:47:42;;;;;;;6.7;3.5;;;;;;;7.81;64.13672;934.3541;;;;
2019/04/22 02:50:10;;;;;;;5.3;3.3;;;;;;;7.48;65.44727;934.3117;;;;
2019/04/22 02:52:32;;;;;;;4.8;3;;;;;;;7.68;64.43457;934.2941;;;;
2019/04/22 02:54:59;;;;;;;4.2;3.2;;;;;;;7.76;64.24121;934.2445;;;;
2019/04/22 02:57:24;;;;;;;4.3;3;;;;;;;7.84;63.90332;934.2332;;;;
2019/04/22 02:59:49;;;;;;;4.3;3.1;;;;;;;7.68;64.08301;934.264;;;;
2019/04/22 03:02:14;;;;;;;4.2;3.2;;;;;;;7.91;63.49414;934.2095;;;;
2019/04/22 03:04:39;;;;;;;4.2;2.8;;;;;;;7.92;63.24609;934.1241;;;;
2019/04/22 03:07:05;;;;;;;7.8;3.2;;;;;;;7.45;64.99023;934.1409;;;;
2019/04/22 03:09:30;;;;;;;4.8;3;;;;;;;7.48;65.03906;934.1302;;;;
2019/04/22 03:11:55;;;;;;;5.2;2.8;;;;;;;7.51;65.06738;934.0975;;;;
2019/04/22 03:14:20;;;;;;;6.4;3.3;;;;;;;7.28;66.21094;934.0923;;;;
2019/04/22 03:16:45;;;;;;;7;3.3;;;;;;;7.43;65.50977;934.0243;;;;
2019/04/22 03:19:11;;;;;;;6.3;3.3;;;;;;;7.9;64.21973;934.012;;;;
2019/04/22 03:21:36;;;;;;;5.8;3.2;;;;;;;7.6;65.35254;934.1152;;;;
2019/04/22 03:24:02;;;;;;;5;3.1;;;;;;;7.53;64.94531;934.0161;;;;
2019/04/22 03:26:30;;;;;;;3.7;2.8;;;;;;;7.63;63.76953;933.956;;;;
2019/04/22 03:28:55;;;;;;;7.1;3;;;;;;;7.55;63.87207;933.9927;;;;
2019/04/22 03:31:20;;;;;;;6.8;3.4;;;;;;;7.36;64.90723;933.9381;;;;
2019/04/22 03:33:47;;;;;;;4;2.4;;;;;;;7.34;63.73926;933.8168;;;;
2019/04/22 03:36:12;;;;;;;3.4;2.9;;;;;;;7.77;62.84863;933.8334;;;;
2019/04/22 03:38:37;;;;;;;4.8;3;;;;;;;7.49;63.58984;933.8247;;;;
2019/04/22 03:41:02;;;;;;;4.2;2.8;;;;;;;7.3;64.48047;933.8328;;;;
2019/04/22 03:43:28;;;;;;;4.9;3.1;;;;;;;7.23;64.71973;933.8097;;;;
2019/04/22 03:45:56;;;;;;;4.4;2.7;;;;;;;7.43;63.89844;933.8642;;;;
2019/04/22 03:48:18;;;;;;;5.4;3.1;;;;;;;7.1;66.03516;933.8723;;;;
2019/04/22 03:50:43;;;;;;;3.8;2.5;;;;;;;7.02;64.49512;933.765;;;;
2019/04/22 03:53:08;;;;;;;4.2;2.8;;;;;;;7.33;64.05469;933.7921;;;;
2019/04/22 03:55:34;;;;;;;4.8;2.9;;;;;;;7.2;64.15918;933.7614;;;;
2019/04/22 03:57:59;;;;;;;4.2;2.8;;;;;;;7.36;63.46777;933.7354;;;;
2019/04/22 04:02:42;;;;;;;4.8;2.7;;;;;;;7.33;63.56641;933.7502;;;;
2019/04/22 04:05:07;;;;;;;7.4;3.1;;;;;;;7.47;63.70117;933.7594;;;;
2019/04/22 04:07:33;;;;;;;4.5;2.9;;;;;;;7.23;64.35645;933.7297;;;;
2019/04/22 04:09:58;;;;;;;4.5;3;;;;;;;7.21;64.68066;933.6894;;;;
2019/04/22 04:12:23;;;;;;;5.2;2.7;;;;;;;7.7;63.07617;933.6882;;;;
2019/04/22 04:14:55;;;;;;;3.2;2.7;;;;;;;7.82;62.41406;933.6346;;;;
2019/04/22 04:17:22;;;;;;;3.5;2.7;;;;;;;8.12;61.45898;933.6074;;;;
2019/04/22 04:19:47;;;;;;;4.1;2.6;;;;;;;7.77;61.83887;933.6099;;;;
2019/04/22 04:22:15;;;;;;;6;3.8;;;;;;;7.41;63.71387;933.5067;;;;
2019/04/22 04:24:40;;;;;;;18.1;8.7;;;;;;;7.77;64.33496;933.4871;;;;
2019/04/22 04:27:06;;;;;;;17.3;8.5;;;;;;;7.99;63.09668;933.5897;;;;
2019/04/22 04:29:32;;;;;;;31.1;13.8;;;;;;;7.94;62.21484;933.6153;;;;
2019/04/22 04:31:57;;;;;;;21.1;11;;;;;;;7.51;63.72754;933.5912;;;;
2019/04/22 04:34:25;;;;;;;14.5;7.2;;;;;;;7.45;64.08398;933.6641;;;;
2019/04/22 04:36:50;;;;;;;7.9;5.2;;;;;;;7.41;63.82617;933.6886;;;;
2019/04/22 04:39:16;;;;;;;9.2;5.2;;;;;;;7.55;63.79102;933.6551;;;;
2019/04/22 04:41:41;;;;;;;7.5;4.3;;;;;;;7.37;64.27441;933.6753;;;;
2019/04/22 04:44:07;;;;;;;6.4;3.1;;;;;;;7.4;63.67871;933.6933;;;;
2019/04/22 04:46:32;;;;;;;4.7;2.8;;;;;;;7.52;63.32324;933.5771;;;;
2019/04/22 04:48:58;;;;;;;7.6;3;;;;;;;7.44;63.70801;933.6561;;;;
2019/04/22 04:51:23;;;;;;;5.8;3.1;;;;;;;7.4;63.71289;933.5751;;;;
2019/04/22 04:53:48;;;;;;;3.6;3.1;;;;;;;7.35;62.80957;933.5753;;;;
2019/04/22 04:56:13;;;;;;;5.1;3.3;;;;;;;7.44;63.83301;933.5927;;;;
2019/04/22 04:58:38;;;;;;;7.3;3.5;;;;;;;7.45;63.8457;933.55;;;;
2019/04/22 05:01:03;;;;;;;4.2;3.4;;;;;;;7.57;63.52344;933.5516;;;;
2019/04/22 05:03:31;;;;;;;5.9;3.7;;;;;;;7.36;64.5;933.4819;;;;
2019/04/22 05:05:57;;;;;;;7.3;3.2;;;;;;;7.59;63.19727;933.4734;;;;
2019/04/22 05:08:22;;;;;;;5.3;3.5;;;;;;;7.6;63.44922;933.5314;;;;
2019/04/22 05:10:47;;;;;;;8.2;3.5;;;;;;;7.65;63.2959;933.4689;;;;
2019/04/22 05:13:14;;;;;;;8.2;3.4;;;;;;;7.75;63.1416;933.4004;;;;
2019/04/22 05:15:39;;;;;;;6.8;3.4;;;;;;;7.98;62.6748;933.3541;;;;
2019/04/22 05:18:05;;;;;;;5.2;2.9;;;;;;;7.87;62.38672;933.33;;;;
2019/04/22 05:20:30;;;;;;;5;3;;;;;;;8.26;60.77539;933.2942;;;;
2019/04/22 05:23:05;;;;;;;4;2.6;;;;;;;8.49;60.29395;933.1804;;;;
2019/04/22 05:25:49;;;;;;;5.3;2.8;;;;;;;8.33;60.82813;933.2584;;;;
2019/04/22 05:28:33;;;;;;;3.7;2.8;;;;;;;8.26;61.28613;933.2942;;;;
2019/04/22 05:30:59;;;;;;;5.8;2.8;;;;;;;8.64;60.17969;933.2509;;;;
2019/04/22 05:33:30;;;;;;;6;2.6;;;;;;;10.1;54.97754;933.1515;;;;
2019/04/22 05:35:58;;;;;;;7.2;2.7;;;;;;;11.74;50.20605;933.1256;;;;
2019/04/22 05:38:36;;;;;;;5.3;2.3;;;;;;;13.16;46.29102;933.0393;;;;
2019/04/22 05:41:01;;;;;;;3.5;2.3;;;;;;;13.82;44.11914;933.0244;;;;
2019/04/22 05:43:26;;;;;;;10.3;3;;;;;;;13.54;44.25195;933.0221;;;;
2019/04/22 05:45:55;;;;;;;3.5;2.4;;;;;;;14.66;41.8291;933.0333;;;;
2019/04/22 05:48:16;;;;;;;5.6;2.4;;;;;;;15.29;40.07813;932.9535;;;;
2019/04/22 05:50:42;;;;;;;3;2.2;;;;;;;15.52;37.03809;932.8832;;;;
2019/04/22 05:53:07;;;;;;;3.6;2.3;;;;;;;16.01;35.68066;932.8491;;;;
2019/04/22 05:55:33;;;;;;;4.3;2;;;;;;;15.98;35.83984;932.758;;;;
2019/04/22 05:58:01;;;;;;;5.5;1.9;;;;;;;16.12;34.99609;932.7233;;;;
2019/04/22 06:00:24;;;;;;;6.5;2.4;;;;;;;16.5;35.62793;932.7654;;;;
2019/04/22 06:02:49;;;;;;;4.9;2.5;;;;;;;16.3;36.4209;932.74;;;;
2019/04/22 06:05:14;;;;;;;5.7;4.6;;;;;;;16.14;36.18848;932.6996;;;;
2019/04/22 06:07:39;;;;;;;5;2.5;;;;;;;16.2;36.91113;932.6356;;;;
2019/04/22 06:10:04;;;;;;;4.1;2.5;;;;;;;16.33;37.15332;932.6026;;;;
2019/04/22 06:12:29;;;;;;;3.5;2.1;;;;;;;16.66;35.46777;932.5399;;;;
2019/04/22 06:14:55;;;;;;;2.6;1.8;;;;;;;17.08;34.06348;932.5644;;;;
2019/04/22 06:17:20;;;;;;;2.5;1.9;;;;;;;16.88;32.54199;932.572;;;;
2019/04/22 06:19:46;;;;;;;6.5;2.1;;;;;;;17.61;33.60547;932.4264;;;;
2019/04/22 06:22:11;;;;;;;3.6;2.2;;;;;;;17.92;32.48047;932.4283;;;;
2019/04/22 06:24:36;;;;;;;3.7;2.2;;;;;;;18.36;32.41992;932.4854;;;;
2019/04/22 06:27:01;;;;;;;4.1;1.9;;;;;;;18.62;32.42676;932.4425;;;;
2019/04/22 06:29:26;;;;;;;4.2;2.1;;;;;;;18.86;30.58301;932.402;;;;
2019/04/22 06:31:58;;;;;;;4.5;2.1;;;;;;;19.53;29.68457;932.3833;;;;
2019/04/22 06:34:16;;;;;;;5.8;2;;;;;;;19.3;30.07715;932.3234;;;;
2019/04/22 06:36:41;;;;;;;4.1;2.6;;;;;;;19.65;30.27637;932.2414;;;;
2019/04/22 06:39:06;;;;;;;5.3;2.3;;;;;;;19.96;30.49609;932.2749;;;;
2019/04/22 06:41:32;;;;;;;4.7;2.2;;;;;;;19.85;30.51172;932.2564;;;;
2019/04/22 06:43:57;;;;;;;4.5;2.1;;;;;;;20.09;29.71094;932.223;;;;
2019/04/22 06:46:22;;;;;;;3;2;;;;;;;20.14;29.10742;932.2592;;;;
2019/04/22 06:48:47;;;;;;;3.1;2;;;;;;;20.12;29.02441;932.2186;;;;
2019/04/22 06:51:12;;;;;;;5;1.7;;;;;;;20.1;29;932.2299;;;;
2019/04/22 06:53:40;;;;;;;2.9;1.7;;;;;;;20.23;29.3125;932.1469;;;;
2019/04/22 06:56:02;;;;;;;8.4;2.3;;;;;;;20.64;28.97656;932.0714;;;;
2019/04/22 06:58:28;;;;;;;3.6;1.7;;;;;;;20.38;27.74512;932.1649;;;;
2019/04/22 07:00:53;;;;;;;2.4;1.7;;;;;;;20.14;27.25098;932.0911;;;;
2019/04/22 07:03:18;;;;;;;5;1.9;;;;;;;19.92;28.32324;932.0965;;;;
2019/04/22 07:05:43;;;;;;;2.5;1.8;;;;;;;19.6;29.375;932.0717;;;;
2019/04/22 07:08:10;;;;;;;4.7;2;;;;;;;20.03;28.97266;931.9472;;;;
2019/04/22 07:10:34;;;;;;;4.7;1.8;;;;;;;20.58;27.24414;931.9286;;;;
2019/04/22 07:12:59;;;;;;;3.8;1.8;;;;;;;19.63;28.43262;931.9294;;;;
2019/04/22 07:15:24;;;;;;;5.3;1.7;;;;;;;20.1;28.04297;931.9633;;;;
2019/04/22 07:17:49;;;;;;;3.2;1.9;;;;;;;20.2;27.93262;931.8703;;;;
2019/04/22 07:20:15;;;;;;;3.4;1.7;;;;;;;20.18;27.61621;931.8646;;;;
2019/04/22 07:22:47;;;;;;;3.2;1.7;;;;;;;20.92;27.31152;931.7377;;;;
2019/04/22 07:25:06;;;;;;;3.4;1.8;;;;;;;21.03;27.50586;931.7989;;;;
2019/04/22 07:27:31;;;;;;;4.3;2;;;;;;;20.82;27.1543;931.7861;;;;
2019/04/22 07:29:56;;;;;;;3.3;1.7;;;;;;;21.49;26.64453;931.715;;;;
2019/04/22 07:32:21;;;;;;;3.1;1.9;;;;;;;21.4;25.97266;931.6794;;;;
2019/04/22 07:34:47;;;;;;;3.9;1.6;;;;;;;21.74;24.85547;931.6816;;;;
2019/04/22 07:37:12;;;;;;;2.4;1.6;;;;;;;21.27;26.64258;931.7296;;;;
2019/04/22 07:39:37;;;;;;;2.3;1.6;;;;;;;20.62;26.24121;931.6334;;;;
2019/04/22 07:42:02;;;;;;;2.9;1.7;;;;;;;20.62;26.56836;931.6205;;;;
2019/04/22 07:44:27;;;;;;;3.5;1.7;;;;;;;21.38;24.41406;931.5452;;;;
2019/04/22 07:46:53;;;;;;;3;1.8;;;;;;;21.9;23.17773;931.5189;;;;
2019/04/22 07:49:19;;;;;;;3.5;1.8;;;;;;;22.81;23.07227;931.5164;;;;
2019/04/22 07:51:48;;;;;;;3.3;1.7;;;;;;;22.95;21.27051;931.4125;;;;
2019/04/22 07:54:09;;;;;;;3.9;1.6;;;;;;;22.41;21.30371;931.416;;;;
2019/04/22 07:56:35;;;;;;;2.5;1.8;;;;;;;21.87;22.14453;931.3809;;;;
2019/04/22 07:59:00;;;;;;;3.1;1.8;;;;;;;23.48;22.4248;931.3297;;;;
2019/04/22 08:01:25;;;;;;;4.9;1.9;;;;;;;24.41;19.85547;931.3258;;;;
2019/04/22 08:03:51;;;;;;;2.7;1.7;;;;;;;24.96;18.66504;931.2684;;;;
2019/04/22 08:06:16;;;;;;;3.2;1.9;;;;;;;25.68;17.90332;931.2845;;;;
2019/04/22 08:08:41;;;;;;;3;1.8;;;;;;;25.04;18.73926;931.207;;;;
2019/04/22 08:11:07;;;;;;;4.4;1.9;;;;;;;26.38;18.00195;931.1334;;;;
2019/04/22 08:13:32;;;;;;;4.5;1.7;;;;;;;27.01;16.53418;931.1436;;;;
2019/04/22 08:15:57;;;;;;;3.7;1.6;;;;;;;25.32;17.46387;931.0706;;;;
2019/04/22 08:18:24;;;;;;;4.2;1.6;;;;;;;25.74;17.48047;931.0525;;;;
2019/04/22 08:20:49;;;;;;;2.9;1.6;;;;;;;26.47;17.41406;931.0358;;;;
2019/04/22 08:23:14;;;;;;;2.3;1.4;;;;;;;26.38;17.56445;930.9152;;;;
2019/04/22 08:25:39;;;;;;;3.6;1.6;;;;;;;25.58;17.19043;930.8842;;;;
2019/04/22 08:28:07;;;;;;;2.8;1.6;;;;;;;26.18;17.30762;930.8583;;;;
2019/04/22 08:30:33;;;;;;;4;1.6;;;;;;;26.13;15.7793;930.8582;;;;
2019/04/22 08:33:04;;;;;;;3.3;1.4;;;;;;;27.16;16.82422;930.8259;;;;
2019/04/22 08:35:29;;;;;;;4.5;1.4;;;;;;;27.48;14.9375;930.7575;;;;
2019/04/22 08:37:56;;;;;;;3.6;1.4;;;;;;;28.46;14.49512;930.7605;;;;
2019/04/22 08:40:23;;;;;;;3.1;1.5;;;;;;;27.91;14.50098;930.7145;;;;
2019/04/22 08:42:49;;;;;;;2;1.5;;;;;;;27.35;16.20215;930.7197;;;;
2019/04/22 08:45:14;;;;;;;4.7;1.6;;;;;;;27.65;18.18359;930.6539;;;;
2019/04/22 08:47:39;;;;;;;2.7;1.3;;;;;;;29.04;14.2627;930.636;;;;
2019/04/22 08:50:05;;;;;;;2.3;1.5;;;;;;;28.44;14.30371;930.5903;;;;
2019/04/22 08:52:43;;;;;;;4;1.5;;;;;;;29.28;13.72266;930.5708;;;;
2019/04/22 08:55:08;;;;;;;2;1.3;;;;;;;26.94;14.99121;930.5591;;;;
2019/04/22 08:57:33;;;;;;;4.2;1.4;;;;;;;26.56;15.77148;930.5145;;;;
2019/04/22 08:59:58;;;;;;;5.6;1.5;;;;;;;26.34;15.0293;930.5349;;;;
2019/04/22 09:02:23;;;;;;;3.7;1.4;;;;;;;25.24;16.42188;930.4092;;;;
2019/04/22 09:04:49;;;;;;;2.5;1.6;;;;;;;25.28;15.82129;930.442;;;;
2019/04/22 09:07:14;;;;;;;5.3;1.5;;;;;;;25.8;15.7207;930.3688;;;;
2019/04/22 09:09:39;;;;;;;4.4;1.6;;;;;;;25.54;16.17285;930.3688;;;;
2019/04/22 09:12:06;;;;;;;2.9;1.4;;;;;;;25.02;16.76758;930.3372;;;;
2019/04/22 09:14:31;;;;;;;2.7;1.6;;;;;;;24.6;17.54102;930.2974;;;;
2019/04/22 09:16:57;;;;;;;5.3;1.6;;;;;;;24.9;17.29395;930.2528;;;;
2019/04/22 09:19:22;;;;;;;5.6;1.7;;;;;;;25.08;17.35938;930.21;;;;
2019/04/22 09:21:49;;;;;;;5.6;2.2;;;;;;;25.9;19;930.1917;;;;
2019/04/22 09:24:15;;;;;;;3.3;1.8;;;;;;;26.47;17.48535;930.1474;;;;
2019/04/22 09:26:41;;;;;;;3.5;1.6;;;;;;;26.93;15.93848;930.0818;;;;
2019/04/22 09:29:06;;;;;;;4.6;1.6;;;;;;;27.01;16.49805;930.1028;;;;
2019/04/22 09:31:34;;;;;;;3.2;1.8;;;;;;;26.32;17.10059;930.0725;;;;
2019/04/22 09:33:59;;;;;;;2.3;1.6;;;;;;;26.47;18.41992;930.039;;;;
2019/04/22 09:36:24;;;;;;;3.3;1.6;;;;;;;27.5;19.58984;930.0442;;;;
2019/04/22 09:38:49;;;;;;;2.5;1.5;;;;;;;27.26;15.84375;929.9756;;;;
2019/04/22 09:41:14;;;;;;;3.5;1.7;;;;;;;27.3;16.66309;929.9911;;;;
2019/04/22 09:43:53;;;;;;;4.2;1.5;;;;;;;27.47;14.71191;929.9135;;;;
2019/04/22 09:46:21;;;;;;;6.1;1.8;;;;;;;27.08;16.56055;929.916;;;;
2019/04/22 09:48:46;;;;;;;3.7;1.8;;;;;;;27.59;16.29395;929.884;;;;
2019/04/22 09:51:11;;;;;;;6.7;2.3;;;;;;;28.24;15.61621;929.8602;;;;
2019/04/22 09:53:36;;;;;;;5.8;1.6;;;;;;;27.68;13.9707;929.8423;;;;
2019/04/22 09:56:01;;;;;;;3.7;1.3;;;;;;;27.32;13.87695;929.7922;;;;
2019/04/22 09:58:26;;;;;;;3;1.5;;;;;;;27.3;15.75;929.7073;;;;
2019/04/22 10:00:52;;;;;;;2.8;1.5;;;;;;;27.71;16.55957;929.702;;;;
2019/04/22 10:03:17;;;;;;;3.2;1.5;;;;;;;28.21;15.1875;929.6348;;;;
2019/04/22 10:05:42;;;;;;;3.2;1.4;;;;;;;27.71;16.16797;929.6797;;;;
2019/04/22 10:08:07;;;;;;;5;1.5;;;;;;;28.44;13.75684;929.6245;;;;
2019/04/22 10:10:33;;;;;;;3.9;1.4;;;;;;;29.28;13.63965;929.5852;;;;
2019/04/22 10:12:57;;;;;;;5.6;1.5;;;;;;;28.5;12.65234;929.5125;;;;
2019/04/22 10:15:23;;;;;;;2.4;1.4;;;;;;;29.3;11.56738;929.4852;;;;
2019/04/22 10:17:48;;;;;;;2.5;1.3;;;;;;;29.15;12.75391;929.3084;;;;
2019/04/22 10:20:13;;;;;;;2.6;1.4;;;;;;;29.97;14.03027;929.4061;;;;
2019/04/22 10:22:38;;;;;;;1.8;1.2;;;;;;;29.42;12.45215;929.2803;;;;
2019/04/22 10:25:03;;;;;;;4.9;1.4;;;;;;;29.87;11.99902;929.325;;;;
2019/04/22 10:27:28;;;;;;;5;1.5;;;;;;;30.64;13.59668;929.2467;;;;
2019/04/22 10:29:53;;;;;;;6.9;1.6;;;;;;;29.03;11.7627;929.185;;;;
2019/04/22 10:32:22;;;;;;;4.5;1.6;;;;;;;28.91;15.78223;929.1905;;;;
2019/04/22 10:37:13;;;;;;;5.9;1.8;;;;;;;30.86;12.22852;928.985;;;;
2019/04/22 10:39:40;;;;;;;2.3;1.3;;;;;;;30.27;11.18652;928.9776;;;;
2019/04/22 10:42:03;;;;;;;3.7;1.3;;;;;;;29.77;12.50977;928.8613;;;;
2019/04/22 10:44:30;;;;;;;3.4;1.3;;;;;;;30.15;11.3623;928.8334;;;;
2019/04/22 10:46:56;;;;;;;2.5;1.3;;;;;;;31.5;14.59277;928.8226;;;;
2019/04/22 10:49:21;;;;;;;4;1.6;;;;;;;32.42;12.60645;928.7363;;;;
2019/04/22 10:51:46;;;;;;;3.4;1.6;;;;;;;32.15;13.00684;928.7399;;;;
2019/04/22 10:54:11;;;;;;;5.7;1.7;;;;;;;32.89;11.63477;928.722;;;;
2019/04/22 10:56:36;;;;;;;4.1;1.4;;;;;;;33.3;12.70313;928.6317;;;;
2019/04/22 10:59:01;;;;;;;3;1.3;;;;;;;32.67;13.23828;928.6456;;;;
2019/04/22 11:01:27;;;;;;;3.1;1.3;;;;;;;32.33;13.0957;928.5117;;;;
2019/04/22 11:03:52;;;;;;;32.8;2.3;;;;;;;32.34;12.98828;928.5747;;;;
2019/04/22 11:06:17;;;;;;;8;1.5;;;;;;;31.92;12.34082;928.5173;;;;
2019/04/22 11:08:42;;;;;;;8.9;1.6;;;;;;;31.24;15.79199;928.5134;;;;
2019/04/22 11:11:08;;;;;;;4.4;1.4;;;;;;;29.96;18.07422;928.5366;;;;
2019/04/22 11:13:33;;;;;;;4.3;1.5;;;;;;;29.29;18.44043;928.4684;;;;
2019/04/22 11:15:59;;;;;;;3.7;1.5;;;;;;;29.67;19.70801;928.4728;;;;
2019/04/22 11:18:24;;;;;;;2.6;1.4;;;;;;;30.23;17.73926;928.4023;;;;
2019/04/22 11:20:49;;;;;;;3.8;1.8;;;;;;;30.05;17.75586;928.3005;;;;
2019/04/22 11:23:14;;;;;;;4.4;1.6;;;;;;;29.04;21.2998;928.3784;;;;
2019/04/22 11:25:40;;;;;;;5.7;1.6;;;;;;;29.17;19.30566;928.2888;;;;
2019/04/22 11:28:05;;;;;;;3.6;1.8;;;;;;;29.88;18.10742;928.3278;;;;
2019/04/22 11:30:31;;;;;;;3.8;1.6;;;;;;;29.58;20.28809;928.2796;;;;
2019/04/22 11:32:58;;;;;;;3.4;1.5;;;;;;;29.52;17.62695;928.19;;;;
2019/04/22 11:35:23;;;;;;;6.2;1.7;;;;;;;30.18;16.80566;928.1536;;;;
2019/04/22 11:37:48;;;;;;;2.4;1.5;;;;;;;30.47;16.70898;928.183;;;;
2019/04/22 11:40:13;;;;;;;7.2;1.6;;;;;;;30.5;16.1377;928.0667;;;;
2019/04/22 11:42:39;;;;;;;5.2;1.5;;;;;;;30.42;18.16406;928.0036;;;;
2019/04/22 11:45:03;;;;;;;4.8;1.7;;;;;;;29.13;21.42285;928.0164;;;;
2019/04/22 11:47:32;;;;;;;3;1.6;;;;;;;29.31;18.41699;927.9537;;;;
2019/04/22 11:49:57;;;;;;;3.2;1.7;;;;;;;29.23;20.34375;927.8405;;;;
2019/04/22 11:52:22;;;;;;;5.9;1.4;;;;;;;29.58;17.21289;927.8293;;;;
2019/04/22 11:54:47;;;;;;;6.9;1.6;;;;;;;28.23;16.41211;927.8491;;;;
2019/04/22 11:57:12;;;;;;;3.7;1.6;;;;;;;27.72;18.18652;927.8013;;;;
2019/04/22 11:59:37;;;;;;;4;1.9;;;;;;;28.14;19.56934;927.7478;;;;
2019/04/22 12:02:02;;;;;;;4.2;1.7;;;;;;;28.44;21.39063;927.7374;;;;
2019/04/22 12:04:28;;;;;;;2.9;1.6;;;;;;;28.52;18.98047;927.735;;;;
2019/04/22 12:06:53;;;;;;;5.6;1.5;;;;;;;28.14;18.44141;927.7255;;;;
2019/04/22 12:09:18;;;;;;;5.7;1.7;;;;;;;28.18;18.91797;927.7054;;;;
2019/04/22 12:11:43;;;;;;;2.3;1.4;;;;;;;28.18;20.17773;927.7015;;;;
2019/04/22 12:14:09;;;;;;;5;1.7;;;;;;;27.52;20.32617;927.5892;;;;
2019/04/22 12:16:34;;;;;;;6.9;2;;;;;;;27.15;19.77539;927.546;;;;
2019/04/22 12:18:59;;;;;;;5.8;1.8;;;;;;;27.6;20.91113;927.5126;;;;
2019/04/22 12:21:24;;;;;;;4.3;1.7;;;;;;;27.46;20.32324;927.5034;;;;
2019/04/22 12:23:51;;;;;;;3.1;1.7;;;;;;;27.63;21.10254;927.4903;;;;
2019/04/22 12:26:16;;;;;;;2.4;1.5;;;;;;;27.41;20.98633;927.4721;;;;
2019/04/22 12:28:41;;;;;;;5.5;1.8;;;;;;;27.56;18.20313;927.407;;;;
2019/04/22 12:31:12;;;;;;;5.2;1.6;;;;;;;27.9;21.35254;927.3992;;;;
2019/04/22 12:33:42;;;;;;;5.7;1.7;;;;;;;28.1;19.77051;927.3711;;;;
2019/04/22 12:36:10;;;;;;;5;1.7;;;;;;;27.96;20.45215;927.3527;;;;
2019/04/22 12:38:35;;;;;;;2.4;1.7;;;;;;;28.21;20.99902;927.3292;;;;
2019/04/22 12:41:01;;;;;;;3.5;1.7;;;;;;;28.25;19.75293;927.3133;;;;
2019/04/22 12:43:26;;;;;;;5.8;1.8;;;;;;;27.9;21.35254;927.3376;;;;
2019/04/22 12:45:53;;;;;;;2.7;1.7;;;;;;;27.66;20.04785;927.188;;;;
2019/04/22 12:48:27;;;;;;;4.9;1.6;;;;;;;27.71;20.88086;927.2006;;;;
2019/04/22 12:50:50;;;;;;;4.3;1.8;;;;;;;27.31;18.79883;927.1121;;;;
2019/04/22 12:53:14;;;;;;;3.5;1.9;;;;;;;27.15;21.10352;927.0529;;;;
2019/04/22 12:55:39;;;;;;;6.7;1.8;;;;;;;27.86;19.87793;927.0134;;;;
2019/04/22 12:58:04;;;;;;;4.4;1.8;;;;;;;28.4;18.62988;927.0025;;;;
2019/04/22 13:00:29;;;;;;;2.8;1.7;;;;;;;28.84;17.55371;926.9959;;;;
2019/04/22 13:02:54;;;;;;;3.3;1.8;;;;;;;28.6;19.7207;926.9292;;;;
2019/04/22 13:05:19;;;;;;;3.3;1.7;;;;;;;27.11;22.66699;926.8767;;;;
2019/04/22 13:07:46;;;;;;;5.4;1.8;;;;;;;27.01;22.85156;926.9479;;;;
2019/04/22 13:10:11;;;;;;;4.5;1.7;;;;;;;27.72;19.71777;926.9205;;;;
2019/04/22 13:12:36;;;;;;;2.6;1.6;;;;;;;27.87;19.89063;926.8759;;;;
2019/04/22 13:15:02;;;;;;;3.4;2.1;;;;;;;28.57;19.58887;926.7776;;;;
2019/04/22 13:17:27;;;;;;;3.2;1.8;;;;;;;28.42;19.90332;926.7755;;;;
2019/04/22 13:19:53;;;;;;;5.8;1.8;;;;;;;28.6;20.48145;926.7249;;;;
2019/04/22 13:22:18;;;;;;;5.9;2.1;;;;;;;28.05;22.41699;926.7208;;;;
2019/04/22 13:24:43;;;;;;;7;1.9;;;;;;;27.93;20.92676;926.7338;;;;
2019/04/22 13:27:08;;;;;;;4.6;1.8;;;;;;;28.33;19.79297;926.7125;;;;
2019/04/22 13:29:33;;;;;;;4;1.7;;;;;;;27.87;19.6416;926.6362;;;;
2019/04/22 13:31:58;;;;;;;3.2;1.8;;;;;;;28.07;20.5166;926.6525;;;;
2019/04/22 13:34:25;;;;;;;5.1;1.8;;;;;;;28.01;20.61035;926.6267;;;;
2019/04/22 13:36:50;;;;;;;4.3;1.9;;;;;;;27.6;22.47754;926.5795;;;;
2019/04/22 13:39:15;;;;;;;7.2;2;;;;;;;27.04;23.88379;926.5491;;;;
2019/04/22 13:41:40;;;;;;;3.5;1.8;;;;;;;26.98;22.2334;926.5386;;;;
2019/04/22 13:44:05;;;;;;;3.6;1.9;;;;;;;27.22;21.43945;926.4952;;;;
2019/04/22 13:46:30;;;;;;;2.8;2;;;;;;;27.55;20.81348;926.567;;;;
2019/04/22 13:48:55;;;;;;;3.6;1.9;;;;;;;27.71;21.41504;926.5083;;;;
2019/04/22 13:51:20;;;;;;;3.5;1.8;;;;;;;27.48;20.66797;926.497;;;;
2019/04/22 13:53:46;;;;;;;6.4;2.3;;;;;;;27.8;21.98926;926.4785;;;;
2019/04/22 13:56:11;;;;;;;4.7;1.9;;;;;;;27.36;24.25781;926.4875;;;;
2019/04/22 13:58:36;;;;;;;3.1;1.9;;;;;;;26.61;23.54102;926.4207;;;;
2019/04/22 14:01:07;;;;;;;6;2.2;;;;;;;26.59;21.1123;926.3817;;;;
2019/04/22 14:05:52;;;;;;;4.3;1.8;;;;;;;27.23;21.70117;926.358;;;;
2019/04/22 14:08:17;;;;;;;5.6;2;;;;;;;27.46;23.20605;926.2697;;;;
2019/04/22 14:10:42;;;;;;;3.5;1.8;;;;;;;26.75;24.25977;926.3049;;;;
2019/04/22 14:13:09;;;;;;;3.7;1.8;;;;;;;27.23;24.45215;926.2664;;;;
2019/04/22 14:15:34;;;;;;;5.3;2;;;;;;;27.23;23.30176;926.2887;;;;
2019/04/22 14:18:00;;;;;;;4.6;2.1;;;;;;;27.47;22.36426;926.1375;;;;
2019/04/22 14:20:25;;;;;;;5.4;2.2;;;;;;;26.99;22.64844;926.1489;;;;
2019/04/22 14:22:53;;;;;;;4;1.9;;;;;;;26.22;24.88184;926.1141;;;;
2019/04/22 14:25:18;;;;;;;10.9;2.1;;;;;;;25.8;25.07129;926.0793;;;;
2019/04/22 14:27:43;;;;;;;5.3;2.1;;;;;;;25.64;23.49023;926.1254;;;;
2019/04/22 14:30:08;;;;;;;5.3;2.1;;;;;;;25.87;24.22461;926.1106;;;;